createdAt,value
2017-11-17T00:00:04.141Z,53.05
2017-11-17T00:01:06.648Z,53.06
2017-11-17T00:02:09.133Z,52.92
2017-11-17T00:03:11.638Z,52.74
2017-11-17T00:04:14.130Z,52.52
2017-11-17T00:05:16.604Z,52.37
2017-11-17T00:06:19.087Z,52.30
2017-11-17T00:07:21.551Z,52.16
2017-11-17T00:08:24.020Z,52.08
2017-11-17T00:09:26.580Z,52.01
2017-11-17T00:10:29.043Z,51.98
2017-11-17T00:11:31.565Z,51.95
2017-11-17T00:12:34.032Z,51.94
2017-11-17T00:13:36.496Z,51.95
2017-11-17T00:14:38.985Z,51.94
2017-11-17T00:15:41.470Z,51.97
2017-11-17T00:16:43.974Z,51.98
2017-11-17T00:17:46.463Z,51.99
2017-11-17T00:18:48.928Z,52.00
2017-11-17T00:19:51.395Z,52.02
2017-11-17T00:20:53.856Z,52.06
2017-11-17T00:21:56.344Z,52.12
2017-11-17T00:22:58.812Z,52.21
2017-11-17T00:24:01.310Z,52.25
2017-11-17T00:25:03.793Z,52.29
2017-11-17T00:26:06.273Z,52.34
2017-11-17T00:27:08.776Z,52.38
2017-11-17T00:28:11.240Z,52.41
2017-11-17T00:29:13.722Z,52.47
2017-11-17T00:30:16.691Z,52.49
2017-11-17T00:31:19.173Z,52.60
2017-11-17T00:32:21.692Z,52.63
2017-11-17T00:33:24.173Z,52.73
2017-11-17T00:34:26.650Z,52.83
2017-11-17T00:35:29.112Z,52.94
2017-11-17T00:36:31.594Z,53.05
2017-11-17T00:37:34.118Z,53.13
2017-11-17T00:38:36.584Z,53.27
2017-11-17T00:39:39.059Z,53.36
2017-11-17T00:40:41.524Z,53.43
2017-11-17T00:41:43.992Z,53.54
2017-11-17T00:42:46.477Z,53.63
2017-11-17T00:43:48.955Z,53.71
2017-11-17T00:44:51.434Z,53.62
2017-11-17T00:45:53.930Z,53.54
2017-11-17T00:46:56.410Z,53.38
2017-11-17T00:47:58.910Z,53.19
2017-11-17T00:49:01.406Z,53.16
2017-11-17T00:50:03.876Z,53.06
2017-11-17T00:51:06.335Z,53.00
2017-11-17T00:52:08.813Z,52.93
2017-11-17T00:53:11.304Z,52.88
2017-11-17T00:54:13.787Z,52.81
2017-11-17T00:55:16.248Z,52.83
2017-11-17T00:56:18.712Z,52.84
2017-11-17T00:57:21.171Z,52.86
2017-11-17T00:58:23.660Z,52.89
2017-11-17T00:59:26.124Z,52.91
2017-11-17T01:00:28.619Z,52.95
2017-11-17T01:01:31.092Z,53.04
2017-11-17T01:02:33.582Z,53.08
2017-11-17T01:03:36.071Z,53.16
2017-11-17T01:04:38.557Z,53.22
2017-11-17T01:05:41.033Z,53.30
2017-11-17T01:06:43.491Z,53.38
2017-11-17T01:07:45.966Z,53.45
2017-11-17T01:08:48.463Z,53.55
2017-11-17T01:09:50.935Z,53.62
2017-11-17T01:10:53.422Z,53.69
2017-11-17T01:11:55.924Z,53.74
2017-11-17T01:12:58.360Z,53.76
2017-11-17T01:14:00.862Z,53.77
2017-11-17T01:15:03.320Z,53.78
2017-11-17T01:16:05.789Z,53.70
2017-11-17T01:17:08.267Z,53.48
2017-11-17T01:18:10.736Z,53.30
2017-11-17T01:19:13.241Z,53.17
2017-11-17T01:20:15.709Z,53.10
2017-11-17T01:21:18.172Z,53.01
2017-11-17T01:22:20.632Z,52.95
2017-11-17T01:23:23.109Z,52.84
2017-11-17T01:24:25.672Z,52.84
2017-11-17T01:25:28.131Z,52.87
2017-11-17T01:26:30.606Z,52.89
2017-11-17T01:27:33.074Z,52.93
2017-11-17T01:28:35.544Z,53.01
2017-11-17T01:29:38.031Z,53.06
2017-11-17T01:30:40.501Z,53.11
2017-11-17T01:31:42.960Z,53.16
2017-11-17T01:32:45.433Z,53.27
2017-11-17T01:33:47.914Z,53.36
2017-11-17T01:34:50.396Z,53.45
2017-11-17T01:35:52.855Z,53.52
2017-11-17T01:36:55.329Z,53.61
2017-11-17T01:37:57.792Z,53.64
2017-11-17T01:39:00.271Z,53.77
2017-11-17T01:40:02.813Z,53.89
2017-11-17T01:41:05.294Z,53.98
2017-11-17T01:42:07.764Z,54.07
2017-11-17T01:43:10.235Z,54.18
2017-11-17T01:44:12.695Z,54.23
2017-11-17T01:45:15.193Z,54.30
2017-11-17T01:46:17.673Z,54.38
2017-11-17T01:47:20.142Z,54.39
2017-11-17T01:48:22.614Z,54.41
2017-11-17T01:49:25.084Z,54.28
2017-11-17T01:50:27.568Z,54.17
2017-11-17T01:51:30.041Z,54.02
2017-11-17T01:52:32.510Z,53.83
2017-11-17T01:53:34.988Z,53.72
2017-11-17T01:54:37.471Z,53.66
2017-11-17T01:55:39.966Z,53.50
2017-11-17T01:56:42.431Z,53.44
2017-11-17T01:57:44.910Z,53.41
2017-11-17T01:58:47.371Z,53.39
2017-11-17T01:59:49.828Z,53.43
2017-11-17T02:00:52.321Z,53.48
2017-11-17T02:01:54.786Z,53.52
2017-11-17T02:02:57.245Z,53.55
2017-11-17T02:03:59.723Z,53.60
2017-11-17T02:05:02.190Z,53.67
2017-11-17T02:06:04.668Z,53.70
2017-11-17T02:07:07.145Z,53.76
2017-11-17T02:08:09.605Z,53.95
2017-11-17T02:09:12.068Z,53.99
2017-11-17T02:10:14.554Z,54.08
2017-11-17T02:11:17.042Z,54.15
2017-11-17T02:12:19.522Z,54.24
2017-11-17T02:13:22.007Z,54.36
2017-11-17T02:14:24.486Z,54.45
2017-11-17T02:15:26.972Z,54.49
2017-11-17T02:16:29.436Z,54.61
2017-11-17T02:17:31.909Z,54.67
2017-11-17T02:18:34.393Z,54.76
2017-11-17T02:19:36.871Z,54.84
2017-11-17T02:20:39.350Z,54.92
2017-11-17T02:21:41.814Z,54.99
2017-11-17T02:22:44.311Z,54.96
2017-11-17T02:23:46.786Z,54.93
2017-11-17T02:24:49.255Z,54.87
2017-11-17T02:25:51.716Z,54.76
2017-11-17T02:26:54.193Z,54.55
2017-11-17T02:27:56.672Z,54.38
2017-11-17T02:28:59.149Z,54.26
2017-11-17T02:30:01.609Z,54.19
2017-11-17T02:31:04.088Z,54.06
2017-11-17T02:32:06.585Z,54.01
2017-11-17T02:33:09.050Z,54.02
2017-11-17T02:34:11.507Z,54.04
2017-11-17T02:35:13.974Z,53.94
2017-11-17T02:36:16.433Z,54.00
2017-11-17T02:37:18.899Z,54.08
2017-11-17T02:38:21.391Z,54.12
2017-11-17T02:39:23.870Z,54.14
2017-11-17T02:40:26.345Z,54.20
2017-11-17T02:41:28.822Z,54.28
2017-11-17T02:42:31.290Z,54.31
2017-11-17T02:43:33.767Z,54.44
2017-11-17T02:44:36.245Z,54.48
2017-11-17T02:45:38.732Z,54.55
2017-11-17T02:46:41.201Z,54.62
2017-11-17T02:47:43.689Z,54.64
2017-11-17T02:48:46.152Z,54.80
2017-11-17T02:49:48.620Z,54.87
2017-11-17T02:50:51.084Z,55.00
2017-11-17T02:51:53.548Z,55.06
2017-11-17T02:52:56.022Z,55.12
2017-11-17T02:53:58.489Z,55.21
2017-11-17T02:55:00.962Z,55.30
2017-11-17T02:56:03.421Z,55.40
2017-11-17T02:57:05.888Z,55.47
2017-11-17T02:58:08.364Z,55.52
2017-11-17T02:59:10.827Z,55.52
2017-11-17T03:00:13.310Z,55.52
2017-11-17T03:01:15.786Z,55.54
2017-11-17T03:02:18.258Z,55.29
2017-11-17T03:03:20.727Z,55.10
2017-11-17T03:04:23.215Z,55.02
2017-11-17T03:05:25.675Z,55.02
2017-11-17T03:06:28.152Z,54.82
2017-11-17T03:07:30.611Z,54.71
2017-11-17T03:08:33.073Z,54.70
2017-11-17T03:09:35.555Z,54.54
2017-11-17T03:10:38.039Z,54.59
2017-11-17T03:11:40.564Z,54.61
2017-11-17T03:12:43.087Z,54.61
2017-11-17T03:13:45.570Z,54.71
2017-11-17T03:14:48.027Z,54.78
2017-11-17T03:15:50.484Z,54.83
2017-11-17T03:16:52.955Z,54.85
2017-11-17T03:17:55.430Z,54.92
2017-11-17T03:18:57.895Z,55.04
2017-11-17T03:20:00.366Z,55.11
2017-11-17T03:21:02.839Z,55.15
2017-11-17T03:22:05.318Z,55.28
2017-11-17T03:23:07.799Z,55.34
2017-11-17T03:24:10.266Z,55.43
2017-11-17T03:25:12.750Z,55.50
2017-11-17T03:26:15.207Z,55.57
2017-11-17T03:27:17.668Z,55.64
2017-11-17T03:28:20.198Z,55.70
2017-11-17T03:29:22.679Z,55.76
2017-11-17T03:30:25.193Z,55.81
2017-11-17T03:31:27.665Z,55.85
2017-11-17T03:32:30.126Z,55.98
2017-11-17T03:33:32.588Z,55.97
2017-11-17T03:34:35.061Z,56.06
2017-11-17T03:35:37.541Z,56.07
2017-11-17T03:36:40.018Z,56.06
2017-11-17T03:37:42.505Z,56.08
2017-11-17T03:38:44.979Z,56.11
2017-11-17T03:39:47.461Z,55.94
2017-11-17T03:40:49.933Z,55.74
2017-11-17T03:41:52.422Z,55.58
2017-11-17T03:42:54.881Z,55.44
2017-11-17T03:43:57.346Z,55.32
2017-11-17T03:44:59.804Z,55.21
2017-11-17T03:46:02.278Z,55.18
2017-11-17T03:47:04.738Z,55.05
2017-11-17T03:48:07.221Z,55.00
2017-11-17T03:49:09.692Z,55.06
2017-11-17T03:50:12.162Z,54.98
2017-11-17T03:51:14.643Z,55.09
2017-11-17T03:52:17.118Z,55.05
2017-11-17T03:53:19.579Z,55.10
2017-11-17T03:54:22.069Z,55.21
2017-11-17T03:55:24.542Z,55.31
2017-11-17T03:56:27.036Z,55.41
2017-11-17T03:57:29.514Z,55.46
2017-11-17T03:58:31.993Z,55.59
2017-11-17T03:59:34.452Z,55.66
2017-11-17T04:00:36.930Z,55.85
2017-11-17T04:01:39.387Z,55.82
2017-11-17T04:02:41.860Z,55.92
2017-11-17T04:03:44.325Z,56.04
2017-11-17T04:04:46.784Z,56.08
2017-11-17T04:05:49.247Z,56.16
2017-11-17T04:06:51.717Z,56.23
2017-11-17T04:07:54.202Z,56.34
2017-11-17T04:08:56.682Z,56.40
2017-11-17T04:09:59.160Z,56.51
2017-11-17T04:11:01.625Z,56.52
2017-11-17T04:12:04.123Z,56.53
2017-11-17T04:13:06.591Z,56.55
2017-11-17T04:14:09.066Z,56.59
2017-11-17T04:15:11.524Z,56.62
2017-11-17T04:16:13.994Z,56.59
2017-11-17T04:17:16.456Z,56.64
2017-11-17T04:18:18.939Z,56.53
2017-11-17T04:19:21.422Z,56.33
2017-11-17T04:20:23.915Z,56.15
2017-11-17T04:21:26.386Z,55.97
2017-11-17T04:22:28.863Z,55.85
2017-11-17T04:23:31.335Z,55.78
2017-11-17T04:24:33.812Z,55.70
2017-11-17T04:25:36.272Z,55.64
2017-11-17T04:26:39.352Z,55.61
2017-11-17T04:27:42.557Z,55.58
2017-11-17T04:28:45.025Z,55.53
2017-11-17T04:29:47.498Z,55.58
2017-11-17T04:30:49.958Z,55.60
2017-11-17T04:31:52.424Z,55.64
2017-11-17T04:32:54.888Z,55.68
2017-11-17T04:33:57.409Z,55.72
2017-11-17T04:34:59.868Z,55.76
2017-11-17T04:36:02.341Z,55.80
2017-11-17T04:37:04.814Z,55.92
2017-11-17T04:38:07.287Z,55.98
2017-11-17T04:39:09.764Z,56.06
2017-11-17T04:40:12.234Z,56.13
2017-11-17T04:41:14.706Z,56.18
2017-11-17T04:42:17.175Z,56.24
2017-11-17T04:43:19.641Z,56.36
2017-11-17T04:44:22.119Z,56.40
2017-11-17T04:45:24.583Z,56.46
2017-11-17T04:46:27.068Z,56.55
2017-11-17T04:47:29.532Z,56.60
2017-11-17T04:48:31.992Z,56.71
2017-11-17T04:49:34.477Z,56.70
2017-11-17T04:50:36.950Z,56.74
2017-11-17T04:51:39.426Z,56.80
2017-11-17T04:52:41.894Z,56.85
2017-11-17T04:53:44.369Z,56.91
2017-11-17T04:54:46.886Z,56.88
2017-11-17T04:55:49.374Z,56.92
2017-11-17T04:56:51.873Z,56.79
2017-11-17T04:57:54.342Z,56.64
2017-11-17T04:58:56.883Z,56.42
2017-11-17T05:00:00.043Z,56.38
2017-11-17T05:01:02.513Z,56.19
2017-11-17T05:02:05.000Z,55.98
2017-11-17T05:03:07.502Z,55.98
2017-11-17T05:04:09.963Z,55.84
2017-11-17T05:05:12.432Z,55.86
2017-11-17T05:06:14.957Z,55.80
2017-11-17T05:07:17.435Z,55.81
2017-11-17T05:08:19.900Z,55.75
2017-11-17T05:09:22.377Z,55.71
2017-11-17T05:10:24.844Z,55.75
2017-11-17T05:11:27.309Z,55.75
2017-11-17T05:12:29.768Z,55.79
2017-11-17T05:13:32.238Z,55.86
2017-11-17T05:14:34.704Z,55.91
2017-11-17T05:15:37.167Z,55.95
2017-11-17T05:16:39.881Z,56.01
2017-11-17T05:17:42.358Z,56.07
2017-11-17T05:18:44.821Z,56.11
2017-11-17T05:19:47.299Z,56.23
2017-11-17T05:20:49.770Z,56.25
2017-11-17T05:21:52.235Z,56.35
2017-11-17T05:22:54.699Z,56.42
2017-11-17T05:23:57.215Z,56.43
2017-11-17T05:24:59.694Z,56.47
2017-11-17T05:26:02.171Z,56.60
2017-11-17T05:27:04.635Z,56.67
2017-11-17T05:28:07.114Z,56.67
2017-11-17T05:29:09.574Z,56.70
2017-11-17T05:30:12.058Z,56.79
2017-11-17T05:31:14.517Z,56.88
2017-11-17T05:32:17.015Z,56.97
2017-11-17T05:33:19.528Z,57.09
2017-11-17T05:34:21.979Z,57.18
2017-11-17T05:35:24.461Z,57.33
2017-11-17T05:36:26.936Z,57.17
2017-11-17T05:37:29.404Z,57.04
2017-11-17T05:38:31.863Z,56.84
2017-11-17T05:39:34.324Z,56.73
2017-11-17T05:40:36.790Z,56.60
2017-11-17T05:41:39.268Z,56.38
2017-11-17T05:42:41.754Z,56.32
2017-11-17T05:43:44.229Z,56.21
2017-11-17T05:44:46.709Z,56.04
2017-11-17T05:45:49.194Z,56.01
2017-11-17T05:46:51.690Z,56.04
2017-11-17T05:47:54.162Z,56.02
2017-11-17T05:48:56.630Z,56.02
2017-11-17T05:49:59.094Z,56.04
2017-11-17T05:51:01.567Z,56.02
2017-11-17T05:52:04.047Z,56.13
2017-11-17T05:53:06.510Z,56.20
2017-11-17T05:54:08.991Z,56.20
2017-11-17T05:55:11.459Z,56.26
2017-11-17T05:56:13.942Z,56.33
2017-11-17T05:57:16.414Z,56.37
2017-11-17T05:58:18.880Z,56.40
2017-11-17T05:59:21.372Z,56.47
2017-11-17T06:00:23.948Z,56.54
2017-11-17T06:01:26.436Z,56.71
2017-11-17T06:02:28.952Z,56.75
2017-11-17T06:03:31.433Z,56.84
2017-11-17T06:04:33.978Z,56.92
2017-11-17T06:05:36.447Z,57.13
2017-11-17T06:06:38.952Z,57.11
2017-11-17T06:07:42.265Z,57.16
2017-11-17T06:08:44.789Z,57.23
2017-11-17T06:09:47.368Z,57.22
2017-11-17T06:10:49.855Z,57.29
2017-11-17T06:11:52.348Z,57.33
2017-11-17T06:12:54.863Z,57.42
2017-11-17T06:13:57.323Z,57.50
2017-11-17T06:14:59.793Z,57.54
2017-11-17T06:16:02.256Z,57.58
2017-11-17T06:17:04.734Z,57.57
2017-11-17T06:18:07.196Z,57.49
2017-11-17T06:19:09.828Z,57.30
2017-11-17T06:20:12.303Z,57.15
2017-11-17T06:21:14.777Z,56.91
2017-11-17T06:22:17.261Z,56.71
2017-11-17T06:23:19.761Z,56.58
2017-11-17T06:24:22.233Z,56.48
2017-11-17T06:25:24.705Z,56.43
2017-11-17T06:26:27.269Z,56.33
2017-11-17T06:27:29.746Z,56.28
2017-11-17T06:28:32.212Z,56.30
2017-11-17T06:29:34.691Z,56.26
2017-11-17T06:30:37.167Z,56.26
2017-11-17T06:31:39.641Z,56.30
2017-11-17T06:32:42.129Z,56.37
2017-11-17T06:33:44.588Z,56.35
2017-11-17T06:34:47.077Z,56.38
2017-11-17T06:35:49.556Z,56.44
2017-11-17T06:36:52.036Z,56.60
2017-11-17T06:37:54.510Z,56.69
2017-11-17T06:38:56.980Z,56.77
2017-11-17T06:40:00.199Z,56.79
2017-11-17T06:41:02.674Z,56.77
2017-11-17T06:42:05.184Z,56.92
2017-11-17T06:43:07.655Z,56.92
2017-11-17T06:44:10.119Z,57.04
2017-11-17T06:45:12.602Z,57.08
2017-11-17T06:46:15.075Z,57.13
2017-11-17T06:47:17.557Z,57.19
2017-11-17T06:48:20.034Z,57.13
2017-11-17T06:49:22.512Z,57.21
2017-11-17T06:50:24.996Z,57.29
2017-11-17T06:51:27.478Z,57.25
2017-11-17T06:52:29.962Z,57.47
2017-11-17T06:53:32.458Z,57.45
2017-11-17T06:54:34.938Z,57.58
2017-11-17T06:55:37.469Z,57.61
2017-11-17T06:56:39.946Z,57.64
2017-11-17T06:57:42.416Z,57.61
2017-11-17T06:58:44.913Z,57.59
2017-11-17T06:59:47.390Z,57.47
2017-11-17T07:00:49.876Z,57.29
2017-11-17T07:01:52.340Z,57.07
2017-11-17T07:02:54.831Z,56.94
2017-11-17T07:03:57.291Z,56.76
2017-11-17T07:04:59.771Z,56.74
2017-11-17T07:06:02.265Z,56.70
2017-11-17T07:07:04.737Z,56.65
2017-11-17T07:08:07.216Z,56.71
2017-11-17T07:09:09.681Z,56.59
2017-11-17T07:10:12.136Z,56.56
2017-11-17T07:11:14.619Z,56.60
2017-11-17T07:12:17.110Z,56.52
2017-11-17T07:13:19.639Z,56.46
2017-11-17T07:14:22.108Z,56.49
2017-11-17T07:15:24.586Z,56.59
2017-11-17T07:16:27.081Z,56.91
2017-11-17T07:17:29.562Z,56.85
2017-11-17T07:18:32.214Z,56.88
2017-11-17T07:19:34.705Z,57.05
2017-11-17T07:20:37.185Z,57.04
2017-11-17T07:21:39.686Z,57.11
2017-11-17T07:22:42.163Z,57.12
2017-11-17T07:23:44.642Z,57.26
2017-11-17T07:24:47.130Z,57.27
2017-11-17T07:25:49.596Z,57.27
2017-11-17T07:26:52.082Z,57.27
2017-11-17T07:27:54.558Z,57.35
2017-11-17T07:28:57.044Z,57.39
2017-11-17T07:30:00.130Z,57.44
2017-11-17T07:31:02.603Z,57.48
2017-11-17T07:32:05.090Z,57.54
2017-11-17T07:33:07.582Z,57.56
2017-11-17T07:34:10.044Z,57.60
2017-11-17T07:35:12.502Z,57.62
2017-11-17T07:36:14.996Z,57.64
2017-11-17T07:37:17.500Z,57.82
2017-11-17T07:38:19.969Z,57.79
2017-11-17T07:39:22.461Z,57.84
2017-11-17T07:40:24.946Z,57.85
2017-11-17T07:41:27.519Z,57.91
2017-11-17T07:42:30.021Z,57.78
2017-11-17T07:43:32.497Z,57.57
2017-11-17T07:44:35.006Z,57.43
2017-11-17T07:45:37.503Z,57.28
2017-11-17T07:46:39.976Z,57.15
2017-11-17T07:47:42.474Z,57.03
2017-11-17T07:48:44.961Z,56.92
2017-11-17T07:49:47.468Z,56.81
2017-11-17T07:50:49.951Z,56.77
2017-11-17T07:51:52.466Z,56.73
2017-11-17T07:52:54.966Z,56.73
2017-11-17T07:53:57.445Z,56.72
2017-11-17T07:54:59.923Z,56.67
2017-11-17T07:56:02.392Z,56.65
2017-11-17T07:57:04.852Z,56.69
2017-11-17T07:58:07.338Z,56.73
2017-11-17T07:59:09.795Z,56.73
2017-11-17T08:00:12.272Z,56.82
2017-11-17T08:01:14.824Z,56.91
2017-11-17T08:02:17.297Z,56.90
2017-11-17T08:03:19.772Z,57.00
2017-11-17T08:04:22.243Z,57.11
2017-11-17T08:05:24.700Z,57.14
2017-11-17T08:06:27.195Z,57.29
2017-11-17T08:07:29.657Z,57.42
2017-11-17T08:08:32.152Z,57.36
2017-11-17T08:09:34.635Z,57.35
2017-11-17T08:10:37.122Z,57.40
2017-11-17T08:11:39.583Z,57.49
2017-11-17T08:12:42.054Z,57.54
2017-11-17T08:13:44.551Z,57.56
2017-11-17T08:14:47.186Z,57.60
2017-11-17T08:15:49.666Z,57.68
2017-11-17T08:16:52.154Z,57.70
2017-11-17T08:18:01.251Z,57.75
2017-11-17T08:19:03.730Z,57.87
2017-11-17T08:20:06.196Z,57.86
2017-11-17T08:21:08.670Z,57.88
2017-11-17T08:22:11.148Z,57.94
2017-11-17T08:23:13.625Z,57.96
2017-11-17T08:24:16.088Z,57.98
2017-11-17T08:25:18.556Z,57.92
2017-11-17T08:26:21.021Z,57.74
2017-11-17T08:27:23.493Z,57.65
2017-11-17T08:28:25.965Z,57.39
2017-11-17T08:29:28.443Z,57.28
2017-11-17T08:30:30.900Z,57.22
2017-11-17T08:31:33.360Z,57.16
2017-11-17T08:32:35.845Z,57.00
2017-11-17T08:33:38.334Z,56.97
2017-11-17T08:34:40.807Z,57.01
2017-11-17T08:35:43.267Z,57.04
2017-11-17T08:36:45.744Z,56.97
2017-11-17T08:37:48.213Z,56.98
2017-11-17T08:38:50.693Z,57.00
2017-11-17T08:39:53.180Z,57.11
2017-11-17T08:40:55.669Z,57.18
2017-11-17T08:41:58.147Z,57.25
2017-11-17T08:43:00.612Z,57.20
2017-11-17T08:44:03.077Z,57.29
2017-11-17T08:45:05.537Z,57.32
2017-11-17T08:46:08.344Z,57.38
2017-11-17T08:47:10.837Z,57.46
2017-11-17T08:48:13.310Z,57.54
2017-11-17T08:49:15.785Z,57.56
2017-11-17T08:50:18.745Z,57.67
2017-11-17T08:51:21.208Z,57.75
2017-11-17T08:52:23.693Z,57.83
2017-11-17T08:53:26.169Z,57.84
2017-11-17T08:54:28.648Z,57.92
2017-11-17T08:55:31.108Z,58.01
2017-11-17T08:56:33.613Z,58.06
2017-11-17T08:57:36.090Z,58.14
2017-11-17T08:58:38.547Z,58.08
2017-11-17T08:59:41.026Z,58.19
2017-11-17T09:00:43.493Z,58.32
2017-11-17T09:01:45.959Z,58.28
2017-11-17T09:02:48.476Z,58.37
2017-11-17T09:03:50.940Z,58.42
2017-11-17T09:04:53.419Z,58.52
2017-11-17T09:05:55.885Z,58.49
2017-11-17T09:06:58.356Z,58.47
2017-11-17T09:08:00.842Z,58.43
2017-11-17T09:09:03.308Z,58.49
2017-11-17T09:10:05.790Z,57.59
2017-11-17T09:11:08.269Z,56.30
2017-11-17T09:12:10.737Z,55.76
2017-11-17T09:13:13.195Z,55.82
2017-11-17T09:14:15.692Z,55.24
2017-11-17T09:15:18.168Z,55.09
2017-11-17T09:16:20.643Z,54.83
2017-11-17T09:17:23.126Z,54.60
2017-11-17T09:18:25.606Z,53.87
2017-11-17T09:19:28.119Z,54.05
2017-11-17T09:20:30.575Z,54.00
2017-11-17T09:21:33.058Z,53.78
2017-11-17T09:22:35.538Z,53.63
2017-11-17T09:23:38.013Z,53.50
2017-11-17T09:24:40.476Z,53.10
2017-11-17T09:25:42.966Z,52.81
2017-11-17T09:26:45.465Z,52.65
2017-11-17T09:27:47.928Z,53.07
2017-11-17T09:28:50.391Z,52.94
2017-11-17T09:29:52.865Z,52.83
2017-11-17T09:30:55.378Z,52.62
2017-11-17T09:31:57.884Z,52.58
2017-11-17T09:33:00.351Z,52.91
2017-11-17T09:34:02.831Z,52.94
2017-11-17T09:35:05.301Z,53.11
2017-11-17T09:36:08.014Z,53.15
2017-11-17T09:37:10.516Z,53.25
2017-11-17T09:38:12.980Z,53.35
2017-11-17T09:39:15.517Z,53.42
2017-11-17T09:40:17.984Z,53.31
2017-11-17T09:41:20.443Z,52.90
2017-11-17T09:42:22.904Z,52.91
2017-11-17T09:43:25.368Z,52.60
2017-11-17T09:44:27.928Z,52.44
2017-11-17T09:45:30.416Z,52.55
2017-11-17T09:46:32.902Z,52.72
2017-11-17T09:47:35.379Z,52.93
2017-11-17T09:48:37.859Z,52.96
2017-11-17T09:49:40.346Z,53.19
2017-11-17T09:50:42.820Z,53.32
2017-11-17T09:51:45.292Z,53.20
2017-11-17T09:52:47.775Z,53.03
2017-11-17T09:53:50.254Z,52.99
2017-11-17T09:54:52.739Z,52.97
2017-11-17T09:55:55.203Z,52.86
2017-11-17T09:56:57.669Z,53.06
2017-11-17T09:58:00.141Z,53.13
2017-11-17T09:59:02.608Z,53.09
2017-11-17T10:00:05.095Z,52.89
2017-11-17T10:01:07.559Z,52.79
2017-11-17T10:02:10.024Z,52.73
2017-11-17T10:03:12.503Z,52.60
2017-11-17T10:04:14.991Z,52.52
2017-11-17T10:05:17.472Z,52.32
2017-11-17T10:06:19.950Z,52.19
2017-11-17T10:07:22.447Z,52.14
2017-11-17T10:08:24.927Z,52.22
2017-11-17T10:09:27.400Z,52.06
2017-11-17T10:10:29.877Z,52.09
2017-11-17T10:11:32.364Z,52.13
2017-11-17T10:12:34.868Z,51.74
2017-11-17T10:13:37.350Z,49.82
2017-11-17T10:14:39.839Z,50.50
2017-11-17T10:15:42.309Z,51.09
2017-11-17T10:16:44.778Z,50.95
2017-11-17T10:17:47.240Z,50.71
2017-11-17T10:18:49.727Z,50.72
2017-11-17T10:19:52.200Z,50.74
2017-11-17T10:20:54.676Z,50.76
2017-11-17T10:21:57.154Z,50.77
2017-11-17T10:22:59.617Z,50.83
2017-11-17T10:24:02.077Z,50.86
2017-11-17T10:25:04.540Z,50.84
2017-11-17T10:26:07.038Z,51.03
2017-11-17T10:27:09.521Z,50.97
2017-11-17T10:28:12.014Z,51.07
2017-11-17T10:29:14.530Z,51.23
2017-11-17T10:30:17.010Z,51.57
2017-11-17T10:31:19.485Z,51.52
2017-11-17T10:32:21.966Z,51.45
2017-11-17T10:33:24.449Z,51.44
2017-11-17T10:34:27.981Z,51.34
2017-11-17T10:35:30.463Z,51.13
2017-11-17T10:36:32.946Z,50.91
2017-11-17T10:37:35.432Z,51.02
2017-11-17T10:38:37.900Z,51.31
2017-11-17T10:39:40.382Z,51.42
2017-11-17T10:40:42.866Z,51.31
2017-11-17T10:41:45.347Z,51.17
2017-11-17T10:42:47.835Z,51.19
2017-11-17T10:43:50.305Z,51.15
2017-11-17T10:44:52.810Z,51.20
2017-11-17T10:45:55.296Z,51.38
2017-11-17T10:46:57.760Z,51.44
2017-11-17T10:48:00.220Z,51.55
2017-11-17T10:49:02.707Z,51.63
2017-11-17T10:50:05.219Z,51.52
2017-11-17T10:51:07.694Z,51.42
2017-11-17T10:52:10.160Z,51.37
2017-11-17T10:53:12.618Z,51.35
2017-11-17T10:54:15.099Z,51.33
2017-11-17T10:55:17.572Z,51.30
2017-11-17T10:56:34.686Z,51.25
2017-11-17T10:57:37.165Z,51.16
2017-11-17T10:58:41.312Z,51.15
2017-11-17T10:59:45.635Z,51.16
2017-11-17T11:00:48.131Z,51.14
2017-11-17T11:01:50.614Z,51.14
2017-11-17T11:02:53.080Z,51.13
2017-11-17T11:03:55.562Z,51.12
2017-11-17T11:04:58.029Z,51.12
2017-11-17T11:06:00.514Z,51.11
2017-11-17T11:07:04.859Z,51.13
2017-11-17T11:08:07.364Z,51.12
2017-11-17T11:09:09.903Z,51.14
2017-11-17T11:10:12.402Z,51.15
2017-11-17T11:11:20.282Z,51.14
2017-11-17T11:12:22.763Z,51.13
2017-11-17T11:13:25.223Z,51.14
2017-11-17T11:14:27.707Z,51.17
2017-11-17T11:15:30.187Z,51.08
2017-11-17T11:16:32.652Z,51.07
2017-11-17T11:17:35.121Z,51.08
2017-11-17T11:18:37.586Z,51.07
2017-11-17T11:19:40.098Z,51.10
2017-11-17T11:20:42.561Z,51.12
2017-11-17T11:21:45.029Z,51.09
2017-11-17T11:22:47.501Z,51.08
2017-11-17T11:23:49.982Z,51.17
2017-11-17T11:24:52.462Z,51.18
2017-11-17T11:25:54.941Z,51.17
2017-11-17T11:26:57.400Z,51.14
2017-11-17T11:27:59.882Z,51.18
2017-11-17T11:29:02.363Z,51.24
2017-11-17T11:30:04.852Z,51.28
2017-11-17T11:31:07.353Z,51.30
2017-11-17T11:32:09.831Z,51.33
2017-11-17T11:33:12.310Z,51.33
2017-11-17T11:34:14.878Z,51.34
2017-11-17T11:35:17.355Z,51.37
2017-11-17T11:36:19.816Z,51.36
2017-11-17T11:37:22.276Z,51.39
2017-11-17T11:38:24.732Z,51.38
2017-11-17T11:39:27.197Z,51.34
2017-11-17T11:40:29.669Z,51.31
2017-11-17T11:41:32.139Z,51.30
2017-11-17T11:42:34.618Z,51.28
2017-11-17T11:43:37.076Z,51.34
2017-11-17T11:44:39.532Z,51.40
2017-11-17T11:45:42.012Z,51.37
2017-11-17T11:46:44.480Z,51.41
2017-11-17T11:47:46.944Z,51.44
2017-11-17T11:48:49.423Z,51.45
2017-11-17T11:49:51.909Z,51.49
2017-11-17T11:50:54.395Z,51.52
2017-11-17T11:51:56.856Z,51.49
2017-11-17T11:52:59.335Z,51.50
2017-11-17T11:54:01.810Z,51.50
2017-11-17T11:55:04.295Z,51.49
2017-11-17T11:56:06.782Z,51.49
2017-11-17T11:57:09.254Z,51.50
2017-11-17T11:58:11.712Z,51.50
2017-11-17T11:59:14.181Z,51.50
2017-11-17T12:00:16.652Z,51.48
2017-11-17T12:01:19.135Z,51.48
2017-11-17T12:02:21.631Z,51.51
2017-11-17T12:03:24.089Z,51.51
2017-11-17T12:04:26.571Z,51.51
2017-11-17T12:05:29.069Z,51.49
2017-11-17T12:06:31.618Z,51.49
2017-11-17T12:07:34.098Z,51.53
2017-11-17T12:08:36.579Z,51.54
2017-11-17T12:09:39.051Z,51.52
2017-11-17T12:10:41.532Z,51.54
2017-11-17T12:11:43.996Z,51.55
2017-11-17T12:12:46.485Z,51.56
2017-11-17T12:13:48.972Z,51.54
2017-11-17T12:14:51.461Z,51.53
2017-11-17T12:15:53.941Z,51.51
2017-11-17T12:16:56.422Z,51.52
2017-11-17T12:17:58.892Z,51.49
2017-11-17T12:19:01.396Z,51.50
2017-11-17T12:20:03.878Z,51.53
2017-11-17T12:21:06.354Z,51.49
2017-11-17T12:22:08.821Z,51.50
2017-11-17T12:23:11.313Z,51.51
2017-11-17T12:24:13.804Z,51.50
2017-11-17T12:25:16.265Z,51.51
2017-11-17T12:26:18.769Z,51.51
2017-11-17T12:27:21.254Z,51.50
2017-11-17T12:28:23.765Z,51.46
2017-11-17T12:29:26.234Z,51.43
2017-11-17T12:30:28.726Z,51.40
2017-11-17T12:31:31.206Z,51.38
2017-11-17T12:32:33.687Z,51.41
2017-11-17T12:33:36.160Z,51.44
2017-11-17T12:34:38.630Z,51.40
2017-11-17T12:35:41.107Z,51.40
2017-11-17T12:36:43.572Z,51.41
2017-11-17T12:37:46.034Z,51.39
2017-11-17T12:38:48.500Z,51.40
2017-11-17T12:39:50.980Z,51.38
2017-11-17T12:40:53.461Z,51.35
2017-11-17T12:41:55.941Z,51.37
2017-11-17T12:42:58.418Z,51.34
2017-11-17T12:44:00.890Z,51.37
2017-11-17T12:45:03.373Z,51.28
2017-11-17T12:46:05.836Z,51.20
2017-11-17T12:47:08.311Z,51.08
2017-11-17T12:48:10.810Z,51.05
2017-11-17T12:49:13.285Z,51.07
2017-11-17T12:50:15.756Z,51.08
2017-11-17T12:51:18.233Z,51.03
2017-11-17T12:52:20.696Z,51.00
2017-11-17T12:53:23.182Z,50.97
2017-11-17T12:54:25.653Z,50.91
2017-11-17T12:55:28.146Z,50.85
2017-11-17T12:56:30.608Z,50.80
2017-11-17T12:57:33.087Z,50.77
2017-11-17T12:58:35.552Z,50.76
2017-11-17T12:59:38.012Z,50.68
2017-11-17T13:00:40.487Z,50.63
2017-11-17T13:01:42.952Z,50.60
2017-11-17T13:02:45.430Z,50.59
2017-11-17T13:03:47.892Z,50.57
2017-11-17T13:04:50.352Z,50.52
2017-11-17T13:05:52.826Z,50.52
2017-11-17T13:06:55.288Z,50.50
2017-11-17T13:07:57.748Z,50.41
2017-11-17T13:09:00.227Z,50.38
2017-11-17T13:10:02.709Z,50.35
2017-11-17T13:11:05.177Z,50.26
2017-11-17T13:12:07.640Z,50.30
2017-11-17T13:13:10.124Z,50.31
2017-11-17T13:14:12.614Z,50.30
2017-11-17T13:15:15.086Z,50.35
2017-11-17T13:16:17.548Z,50.40
2017-11-17T13:17:20.023Z,50.33
2017-11-17T13:18:22.522Z,50.33
2017-11-17T13:19:24.984Z,50.33
2017-11-17T13:20:27.462Z,50.32
2017-11-17T13:21:29.946Z,50.32
2017-11-17T13:22:32.430Z,50.31
2017-11-17T13:23:34.906Z,50.31
2017-11-17T13:24:37.376Z,50.29